Princeton, IL (61356)

3:27 AM CST on December 05, 2016 (GMT -0600)
APRSWXNET | | Change Station

Elev 698 ft 41.36 °N, 89.47 °W | Updated 59 days ago

Cloudy
Cloudy
29 °F
Feels Like 23 °F
N
5
Wind Variable Wind from SSW
Gusts mph

Today
High -- | Low -- °F
--% Chance of Precip.
Yesterday
High -- | Low -- °F
Precip. -- in
Pressure 30.02 in
Visibility 10.0 miles
Clouds Overcast 600 ft
Windchill 23 °F
Dew Point 29 °F
Humidity 100%
Rainfall in
Snow Depth Not available.
7:08 AM 4:28 PM
Waxing Crescent, 30% visible
METAR KVYS 050910Z AUTO 25007KT 10SM OVC006 01/01 A3002 RMK AO2 T00090007
Pressure 30.02 in
Visibility 10.0 miles
Clouds Overcast 600 ft
Windchill 23 °F
Dew Point 29 °F
Humidity 100%
Rainfall in
Snow Depth Not available.
7:08 AM 4:28 PM
Waxing Crescent, 30% visible
METAR KVYS 050910Z AUTO 25007KT 10SM OVC006 01/01 A3002 RMK AO2 T00090007

10-Day Weather Forecast

Almanac

Astronomy

Dec. 05, 2016 Rise Set
Actual Time
Civil Twilight
Nautical Twilight
Astronomical Twilight
Moon
Length of Visible Light
Length of Day
Tomorrow will be .
, % of the Moon is Illuminated

Today's Extremes

State Highs State Lows

Community

WunderPhotos

Upload Photos

1,955,775 photos uploaded!

WunderBlog® & News

Nearby

Air Quality

  Air Quality AQ Index Pollutant
Not available.

Snow Depth

Station Depth Elevation

Earthquake Activity

City Distance Mag. Time & Date
Minimum magnitude displayed is 2.5.

Coastal Water Temperatures

Place Temperature

Stations

Nearby Weather Stations

Station Location Temp. Windchill Dew Point Humidity Wind Precip. Elev Updated Type
                   

Watches & Warnings

There are currently no watches in effect.